sim
Sign-in with your pilot id or email,
or register
Callsign
Passwort

Schedule Details

Flight Number: OEO4079
Departure: Helsinki Vantaa Airport (EFHK) at 10:10
Arrival: Munich Airport (EDDM) at 12:55

Weather Information
Getting current METAR information for EFHK 210520Z 25006KT 9999 FEW005 10/09 Q1012 NOSIG
Getting current METAR information for EDDM 210520Z VRB01KT 9999 1500NE R08L/0650N BCFG NSC 07/07 Q1016 NOSIG

Schedule Frequency

Route Map